Time;durP1;ratioP1;P1;durP2;ratioP2;P2;SDS_P1;SDS_P2;PMS_P1;PMS_P2;Temp;Humidity;BMP_temperature;BMP_pressure;BME280_temperature;BME280_humidity;BME280_pressure;Samples;Min_cycle;Max_cycle;Signal;HPM_P1;HPM_P2
2024/04/22 00:00:47;;;;;;;;;6.25;5.00;;;;;7.31;100.00;99357.66;6294066;20;1819152;-55
2024/04/22 00:03:14;;;;;;;;;3.00;3.00;;;;;7.28;100.00;99360.50;6327031;20;1799969;-57
2024/04/22 00:05:43;;;;;;;;;4.75;4.75;;;;;7.28;100.00;99355.16;6323973;20;1813914;-57
2024/04/22 00:08:09;;;;;;;;;5.00;5.00;;;;;7.65;100.00;99353.16;6311059;20;2738846;-55
2024/04/22 00:10:36;;;;;;;;;7.50;7.50;;;;;7.36;100.00;99357.44;6310608;20;2741069;-56
2024/04/22 00:13:03;;;;;;;;;7.00;7.00;;;;;7.18;100.00;99354.78;6313468;20;2726315;-53
2024/04/22 00:15:30;;;;;;;;;12.25;7.00;;;;;7.16;100.00;99356.69;6324646;20;1799366;-55
2024/04/22 00:17:57;;;;;;;;;10.50;8.75;;;;;7.11;100.00;99361.41;6322146;20;1805694;-58
2024/04/22 00:20:24;;;;;;;;;10.00;8.00;;;;;6.93;100.00;99357.88;6306798;20;2769072;-57
2024/04/22 00:22:50;;;;;;;;;10.00;7.50;;;;;6.99;100.00;99365.56;6274125;20;2759847;-53
2024/04/22 00:25:18;;;;;;;;;7.25;7.25;;;;;7.32;100.00;99364.75;6292481;20;1807645;-54
2024/04/22 00:27:44;;;;;;;;;10.00;10.00;;;;;7.20;100.00;99368.91;6306533;20;2766939;-54
2024/04/22 00:30:11;;;;;;;;;5.00;5.00;;;;;7.21;100.00;99369.78;6277556;20;2748232;-57
2024/04/22 00:32:37;;;;;;;;;9.00;9.00;;;;;6.92;100.00;99364.16;6308272;20;2743023;-54
2024/04/22 00:35:07;;;;;;;;;8.00;7.33;;;;;6.94;100.00;99361.41;6317695;20;1804476;-57
2024/04/22 00:37:34;;;;;;;;;8.75;7.75;;;;;7.00;100.00;99364.66;6294540;20;1806362;-56
2024/04/22 00:40:01;;;;;;;;;9.50;8.50;;;;;7.10;100.00;99367.69;6308494;20;2749431;-53
2024/04/22 00:42:28;;;;;;;;;9.00;9.00;;;;;6.95;100.00;99356.00;6277369;20;2748246;-54
2024/04/22 00:44:55;;;;;;;;;8.00;8.00;;;;;6.62;100.00;99355.06;6277908;20;2744036;-52
2024/04/22 00:47:21;;;;;;;;;5.50;5.50;;;;;6.58;100.00;99343.69;6309836;20;2738878;-52
2024/04/22 00:49:48;;;;;;;;;8.50;8.50;;;;;6.66;100.00;99345.94;6306549;20;2732603;-55
2024/04/22 00:52:15;;;;;;;;;11.33;11.33;;;;;6.94;100.00;99346.25;6305939;20;2786925;-57
2024/04/22 00:54:45;;;;;;;;;13.20;10.20;;;;;6.98;100.00;99347.84;6331123;20;2786831;-54
2024/04/22 00:57:13;;;;;;;;;10.00;9.00;;;;;6.93;100.00;99341.03;6273900;20;2752347;-58
2024/04/22 00:59:39;;;;;;;;;8.50;8.50;;;;;6.86;100.00;99331.59;6278005;20;2748232;-56
2024/04/22 01:02:06;;;;;;;;;7.50;7.50;;;;;6.83;100.00;99335.28;6276818;20;2742102;-56
2024/04/22 01:04:35;;;;;;;;;11.00;11.00;;;;;6.95;100.00;99334.66;6272156;20;2796142;-57
2024/04/22 01:07:02;;;;;;;;;10.00;9.50;;;;;7.00;100.00;99337.06;6274672;20;2771092;-55
2024/04/22 01:09:28;;;;;;;;;10.50;10.50;;;;;7.03;100.00;99335.13;6270257;20;2794114;-57
2024/04/22 01:11:55;;;;;;;;;11.00;11.00;;;;;6.77;100.00;99338.28;6273361;20;2784761;-56
2024/04/22 01:14:22;;;;;;;;;10.00;9.50;;;;;6.58;100.00;99328.56;6277609;20;2774254;-54
2024/04/22 01:16:54;;;;;;;;;34.67;27.67;;;;;6.68;100.00;99326.25;6273835;20;3612865;-57
2024/04/22 01:19:23;;;;;;;;;54.00;45.00;;;;;6.86;100.00;99321.78;6302097;20;2859797;-56
2024/04/22 01:21:51;;;;;;;;;14.33;14.00;;;;;6.63;100.00;99322.13;6274699;20;2810835;-58
2024/04/22 01:24:19;;;;;;;;;11.00;10.00;;;;;6.52;100.00;99317.31;6304840;20;2789992;-56
2024/04/22 01:26:51;;;;;;;;;15.00;11.50;;;;;6.95;100.00;99315.09;6274780;20;2799637;-53
2024/04/22 01:29:17;;;;;;;;;13.00;9.50;;;;;6.48;100.00;99315.78;6272796;20;2782625;-57
2024/04/22 01:31:44;;;;;;;;;14.00;11.00;;;;;6.47;100.00;99311.38;6272161;20;2797152;-56
2024/04/22 01:34:10;;;;;;;;;10.50;10.50;;;;;6.41;100.00;99314.34;6276139;20;2787133;-56
2024/04/22 01:36:40;;;;;;;;;12.00;10.00;;;;;6.44;100.00;99314.19;6273319;20;2782666;-54
2024/04/22 01:39:13;;;;;;;;;13.20;10.60;;;;;6.75;100.00;99318.81;6304525;20;2784801;-56
2024/04/22 01:41:42;;;;;;;;;14.20;11.00;;;;;7.26;100.00;99320.53;6306165;20;2791926;-53
2024/04/22 01:44:10;;;;;;;;;10.00;10.00;;;;;7.05;100.00;99329.69;6307478;20;2781646;-55
2024/04/22 01:46:38;;;;;;;;;14.00;14.00;;;;;6.64;100.00;99338.06;6301759;20;2808690;-58
2024/04/22 01:49:05;;;;;;;;;12.00;12.00;;;;;6.47;100.00;99330.03;6276882;20;2778511;-57
2024/04/22 01:51:32;;;;;;;;;15.00;15.00;;;;;6.55;100.00;99330.50;6274639;20;2756539;-55
2024/04/22 01:53:58;;;;;;;;;16.00;14.50;;;;;6.50;100.00;99335.19;6273451;20;2798255;-53
2024/04/22 01:56:27;;;;;;;;;13.80;13.00;;;;;6.62;100.00;99333.72;6300648;20;2785811;-58
2024/04/22 01:58:53;;;;;;;;;14.50;14.50;;;;;6.86;100.00;99340.47;6272742;20;2801324;-54
2024/04/22 02:01:21;;;;;;;;;14.33;10.67;;;;;6.56;100.00;99337.59;6274981;20;2788869;-55
2024/04/22 02:03:49;;;;;;;;;17.50;14.50;;;;;6.64;100.00;99330.03;6332811;20;2826383;-57
2024/04/22 02:06:16;;;;;;;;;15.50;13.50;;;;;6.53;100.00;99333.25;6308536;20;2803441;-54
2024/04/22 02:08:44;;;;;;;;;14.80;13.80;;;;;6.45;100.00;99338.13;6303305;20;2787920;-55
2024/04/22 02:11:12;;;;;;;;;13.40;13.20;;;;;6.70;100.00;99337.72;6303428;20;2786852;-55
2024/04/22 02:13:41;;;;;;;;;15.00;10.00;;;;;6.69;100.00;99337.78;6306095;20;2776340;-56
2024/04/22 02:16:07;;;;;;;;;13.00;13.00;;;;;6.57;100.00;99344.63;6279249;20;2788910;-54
2024/04/22 02:18:34;;;;;;;;;11.50;11.50;;;;;6.65;100.00;99339.75;6276765;20;2791988;-57
2024/04/22 02:21:03;;;;;;;;;16.60;12.80;;;;;6.70;100.00;99343.06;6304965;20;2814852;-55
2024/04/22 02:23:32;;;;;;;;;14.60;12.60;;;;;6.95;100.00;99347.13;6302693;20;2789856;-57
2024/04/22 02:25:58;;;;;;;;;14.50;11.00;;;;;7.21;100.00;99353.75;6277805;20;2787844;-54
2024/04/22 02:28:26;;;;;;;;;14.33;13.33;;;;;7.14;100.00;99361.25;6277013;20;2811836;-56
2024/04/22 02:30:53;;;;;;;;;16.00;14.00;;;;;7.22;100.00;99356.34;6305784;20;2812798;-55
2024/04/22 02:33:19;;;;;;;;;14.00;14.00;;;;;7.09;100.00;99368.63;6278917;20;2806596;-56
2024/04/22 02:35:47;;;;;;;;;21.33;17.33;;;;;7.20;100.00;99368.91;6271898;20;3556990;-58
2024/04/22 02:38:16;;;;;;;;;20.00;18.00;;;;;7.24;100.00;99374.94;6273712;20;2830579;-57
2024/04/22 02:40:43;;;;;;;;;15.00;15.00;;;;;7.13;100.00;99375.53;6279231;20;2821089;-54
2024/04/22 02:43:11;;;;;;;;;15.33;15.33;;;;;7.29;100.00;99382.72;6275807;20;2786966;-55
2024/04/22 02:45:38;;;;;;;;;14.33;14.33;;;;;7.07;100.00;99381.19;6304842;20;2811723;-53
2024/04/22 02:48:06;;;;;;;;;16.00;16.00;;;;;7.15;100.00;99387.00;6304832;20;2820170;-56
2024/04/22 02:50:33;;;;;;;;;15.00;15.00;;;;;7.10;100.00;99381.03;6272984;20;2801296;-56
2024/04/22 02:53:01;;;;;;;;;13.80;13.80;;;;;7.23;100.00;99384.78;6299885;20;2811863;-54
2024/04/22 02:55:30;;;;;;;;;13.33;11.00;;;;;7.17;100.00;99387.78;6274340;20;2786864;-56
2024/04/22 02:57:58;;;;;;;;;13.00;11.50;;;;;7.20;100.00;99384.94;6308011;20;2795043;-56
2024/04/22 03:00:26;;;;;;;;;9.80;9.80;;;;;7.01;100.00;99385.03;6299909;20;2778417;-57
2024/04/22 03:02:54;;;;;;;;;12.50;11.00;;;;;7.10;100.00;99381.03;6277309;20;2781649;-53
2024/04/22 03:05:20;;;;;;;;;11.00;11.00;;;;;6.86;100.00;99377.81;6281833;20;2796147;-54
2024/04/22 03:07:47;;;;;;;;;11.50;10.50;;;;;6.90;100.00;99375.84;6275993;20;2788837;-56
2024/04/22 03:10:14;;;;;;;;;14.33;14.33;;;;;6.98;100.00;99379.88;6277889;20;2812859;-58
2024/04/22 03:12:42;;;;;;;;;20.67;16.67;;;;;7.03;100.00;99371.63;6306874;20;3558597;-56
2024/04/22 03:15:08;;;;;;;;;17.50;16.50;;;;;7.00;100.00;99377.09;6306682;20;2819127;-57
2024/04/22 03:17:35;;;;;;;;;17.00;14.00;;;;;6.85;100.00;99378.78;6277153;20;2804548;-55
2024/04/22 03:20:04;;;;;;;;;15.33;12.33;;;;;6.90;100.00;99379.41;6276291;20;2803495;-58
2024/04/22 03:22:33;;;;;;;;;13.40;12.80;;;;;7.13;100.00;99382.66;6331462;20;2794080;-56
2024/04/22 03:25:00;;;;;;;;;17.00;17.00;;;;;6.89;100.00;99384.81;6277205;20;2831559;-56
2024/04/22 03:27:27;;;;;;;;;16.00;16.00;;;;;6.88;100.00;99385.75;6274890;20;3546435;-55
2024/04/22 03:29:54;;;;;;;;;19.00;14.00;;;;;6.85;100.00;99383.25;6295175;20;2815935;-57
2024/04/22 03:32:21;;;;;;;;;16.00;16.00;;;;;6.69;100.00;99385.81;6276844;20;3553369;-56
2024/04/22 03:34:49;;;;;;;;;13.33;13.33;;;;;6.85;100.00;99383.25;6308225;20;3540929;-54
2024/04/22 03:37:16;;;;;;;;;18.00;16.00;;;;;6.82;100.00;99379.78;6307630;20;3556673;-53
2024/04/22 03:39:44;;;;;;;;;18.00;15.67;;;;;6.63;100.00;99384.31;6274181;20;3557576;-54
2024/04/22 03:42:10;;;;;;;;;16.50;15.00;;;;;6.55;100.00;99382.03;6308294;20;2808749;-56
2024/04/22 03:44:38;;;;;;;;;18.67;16.67;;;;;6.55;100.00;99379.38;6275136;20;3562786;-54
2024/04/22 03:49:51;;;;;;;;;11.50;11.50;;;;;6.66;100.00;99383.31;6272917;20;2785765;-53
2024/04/22 03:52:19;;;;;;;;;16.50;15.00;;;;;6.80;100.00;99370.16;6280442;20;2810666;-52
2024/04/22 03:54:45;;;;;;;;;16.00;16.00;;;;;6.70;100.00;99375.06;6276614;20;2820069;-55
2024/04/22 03:57:13;;;;;;;;;20.33;16.33;;;;;6.73;100.00;99377.59;6277138;20;3556489;-54
2024/04/22 03:59:41;;;;;;;;;17.00;16.33;;;;;6.57;100.00;99384.63;6302707;20;3551426;-56
2024/04/22 04:02:09;;;;;;;;;17.00;15.00;;;;;6.49;100.00;99381.50;6307889;20;3560707;-51
2024/04/22 04:04:35;;;;;;;;;17.50;16.00;;;;;6.50;100.00;99386.75;6275411;20;2824375;-57
2024/04/22 04:07:02;;;;;;;;;19.00;19.00;;;;;6.72;100.00;99389.22;6280059;20;2824222;-56
2024/04/22 04:09:29;;;;;;;;;19.00;19.00;;;;;6.56;100.00;99385.59;6274294;20;3550319;-52
2024/04/22 04:11:58;;;;;;;;;18.80;15.00;;;;;6.90;100.00;99389.19;6332496;20;2821255;-55
2024/04/22 04:14:25;;;;;;;;;21.00;18.00;;;;;6.96;100.00;99396.91;6278701;20;2829449;-56
2024/04/22 04:16:52;;;;;;;;;18.33;17.67;;;;;6.85;100.00;99404.59;6276833;20;3557636;-57
2024/04/22 04:19:19;;;;;;;;;20.33;17.00;;;;;7.00;100.00;99414.47;6305789;20;3553466;-56
2024/04/22 04:21:47;;;;;;;;;19.00;16.67;;;;;6.73;100.00;99420.28;6276550;20;3547189;-56
2024/04/22 04:24:14;;;;;;;;;19.67;17.67;;;;;6.62;100.00;99419.94;6307574;20;3550285;-57
2024/04/22 04:26:41;;;;;;;;;22.50;21.50;;;;;7.19;100.00;99415.25;6273787;20;2839848;-56
2024/04/22 04:29:08;;;;;;;;;25.00;23.00;;;;;7.14;100.00;99425.31;6275322;20;2839899;-56
2024/04/22 04:31:36;;;;;;;;;26.00;24.00;;;;;7.20;100.00;99437.47;6273629;20;2838923;-56
2024/04/22 04:34:03;;;;;;;;;17.00;17.00;;;;;6.93;100.00;99434.44;6275622;20;2500311;-54
2024/04/22 04:36:29;;;;;;;;;24.00;23.00;;;;;7.08;100.00;99430.94;6273949;20;2500400;-56
2024/04/22 04:38:56;;;;;;;;;25.00;23.50;;;;;7.25;100.00;99436.28;6271649;20;2496211;-57
2024/04/22 04:41:23;;;;;;;;;20.00;20.00;;;;;7.32;100.00;99435.97;6274279;20;2498864;-55
2024/04/22 04:43:50;;;;;;;;;23.67;23.00;;;;;7.18;100.00;99440.22;6277072;20;3579450;-59
2024/04/22 04:46:17;;;;;;;;;21.00;20.00;;;;;7.02;100.00;99439.28;6277455;20;2835684;-53
2024/04/22 04:48:43;;;;;;;;;21.50;20.00;;;;;7.04;100.00;99448.94;6276973;20;2831537;-56
2024/04/22 04:51:11;;;;;;;;;19.00;16.33;;;;;7.11;100.00;99446.84;6275891;20;3558635;-58
2024/04/22 04:53:38;;;;;;;;;19.67;18.00;;;;;7.23;100.00;99445.31;6306244;20;3549235;-57
2024/04/22 04:56:05;;;;;;;;;20.00;20.00;;;;;7.16;100.00;99447.47;6275920;20;2837891;-58
2024/04/22 04:58:33;;;;;;;;;19.33;17.00;;;;;7.22;100.00;99448.97;6274936;20;3556474;-56
2024/04/22 05:00:59;;;;;;;;;16.50;16.00;;;;;7.14;100.00;99449.34;6302676;20;2494190;-55
2024/04/22 05:03:27;;;;;;;;;17.00;17.00;;;;;7.30;100.00;99451.22;6275773;20;3547114;-58
2024/04/22 05:06:00;;;;;;;;;18.00;16.50;;;;;7.26;100.00;99464.72;6307768;20;2829443;-57
2024/04/22 05:08:29;;;;;;;;;16.33;15.00;;;;;7.18;100.00;99456.25;6274713;20;3559736;-58
2024/04/22 05:10:57;;;;;;;;;14.00;14.00;;;;;7.41;100.00;99459.53;6305039;20;3539847;-58
2024/04/22 05:13:25;;;;;;;;;21.00;18.00;;;;;7.32;100.00;99460.00;6305688;20;3557071;-57
2024/04/22 05:15:52;;;;;;;;;18.33;18.00;;;;;7.41;100.00;99459.53;6272697;20;3566892;-54
2024/04/22 05:18:20;;;;;;;;;18.00;18.00;;;;;7.33;100.00;99451.06;6305320;20;3552779;-53
2024/04/22 05:20:47;;;;;;;;;17.33;16.67;;;;;7.32;100.00;99447.53;6271520;20;3552369;-56
2024/04/22 05:23:15;;;;;;;;;23.00;17.67;;;;;7.33;100.00;99459.09;6273770;20;3561739;-55
2024/04/22 05:25:43;;;;;;;;;23.00;21.00;;;;;7.03;100.00;99451.72;6272852;20;2500266;-58
2024/04/22 05:28:10;;;;;;;;;31.00;27.50;;;;;7.28;100.00;99450.44;6273394;20;2856569;-57
2024/04/22 05:30:37;;;;;;;;;21.00;17.50;;;;;7.09;100.00;99464.75;6269636;20;2500238;-57
2024/04/22 05:36:09;;;;;;;;;19.50;17.50;;;;;7.24;100.00;99461.28;6274793;20;2500425;-57
2024/04/22 05:38:40;;;;;;;;;28.00;22.50;;;;;7.38;100.00;99462.38;6272673;20;2852394;-56
2024/04/22 05:41:06;;;;;;;;;21.00;18.00;;;;;7.19;100.00;99468.66;6273893;20;2500322;-57
2024/04/22 05:43:33;;;;;;;;;21.50;19.00;;;;;7.09;100.00;99472.75;6272389;20;2504998;-57
2024/04/22 05:45:59;;;;;;;;;22.50;21.50;;;;;7.29;100.00;99463.69;6273596;20;2500419;-55
2024/04/22 05:48:27;;;;;;;;;25.50;24.50;;;;;7.68;100.00;99470.56;6272536;20;2860780;-54
2024/04/22 05:50:54;;;;;;;;;27.00;25.00;;;;;7.62;100.00;99469.09;6273843;20;2844030;-59
2024/04/22 05:53:22;;;;;;;;;27.00;25.00;;;;;7.84;100.00;99473.28;6272770;20;2850370;-56
2024/04/22 05:55:49;;;;;;;;;25.00;22.00;;;;;7.67;100.00;99475.06;6274900;20;2842022;-56
2024/04/22 05:58:17;;;;;;;;;27.00;25.50;;;;;7.54;100.00;99484.66;6271837;20;2845157;-58
2024/04/22 06:00:44;;;;;;;;;18.50;16.00;;;;;7.68;100.00;99492.81;6277280;20;2825289;-57
2024/04/22 06:03:12;;;;;;;;;18.00;18.00;;;;;7.87;100.00;99494.50;6271938;20;3559778;-57
2024/04/22 06:05:38;;;;;;;;;24.00;20.50;;;;;7.91;100.00;99494.25;6272545;20;2500421;-59
2024/04/22 06:08:06;;;;;;;;;18.50;16.50;;;;;7.71;100.00;99502.47;6268237;20;2491985;-57
2024/04/22 06:10:33;;;;;;;;;23.00;21.00;;;;;7.86;100.00;99496.31;6274198;20;2500304;-57
2024/04/22 06:13:01;;;;;;;;;24.00;21.33;;;;;8.02;100.00;99506.19;6276154;20;3576320;-56
2024/04/22 06:15:27;;;;;;;;;23.00;21.00;;;;;7.74;100.00;99506.78;6274661;20;2500333;-57
2024/04/22 06:17:55;;;;;;;;;17.67;17.67;;;;;8.04;100.00;99509.66;6274212;20;3566934;-57
2024/04/22 06:20:21;;;;;;;;;18.50;18.00;;;;;8.17;100.00;99518.72;6274014;20;2828423;-57
2024/04/22 06:22:49;;;;;;;;;27.50;27.50;;;;;8.03;100.00;99514.13;6274092;20;2848342;-56
2024/04/22 06:25:16;;;;;;;;;23.00;22.50;;;;;8.17;100.00;99520.56;6280915;20;2827800;-57
2024/04/22 06:27:43;;;;;;;;;21.50;20.00;;;;;8.20;100.00;99526.59;6278800;20;2500272;-59
2024/04/22 06:30:10;;;;;;;;;22.00;18.00;;;;;8.25;100.00;99524.53;6278816;20;2500440;-57
2024/04/22 06:32:38;;;;;;;;;24.00;24.00;;;;;8.33;100.00;99532.13;6278836;20;2844212;-58
2024/04/22 06:35:05;;;;;;;;;27.00;22.00;;;;;8.38;100.00;99540.78;6280770;20;2847317;-57
2024/04/22 06:37:32;;;;;;;;;23.00;22.00;;;;;8.32;100.00;99535.72;6279320;20;3588805;-57
2024/04/22 06:39:59;;;;;;;;;21.50;19.00;;;;;8.19;100.00;99535.56;6274784;20;2500309;-58
2024/04/22 06:42:27;;;;;;;;;17.33;17.33;;;;;8.23;100.00;99538.94;6279324;20;3565885;-58
2024/04/22 06:44:55;;;;;;;;;21.00;18.33;;;;;8.24;100.00;99541.53;6311452;20;3564894;-56
2024/04/22 06:47:21;;;;;;;;;18.50;18.50;;;;;8.51;100.00;99546.34;6279063;20;2500385;-56
2024/04/22 06:49:48;;;;;;;;;20.50;19.50;;;;;8.54;100.00;99552.38;6278773;20;2655982;-58
2024/04/22 06:52:15;;;;;;;;;19.33;19.33;;;;;8.33;100.00;99554.38;6280352;20;3565899;-57
2024/04/22 06:54:42;;;;;;;;;18.00;18.00;;;;;8.49;100.00;99551.75;6278192;20;2500277;-55
2024/04/22 06:57:10;;;;;;;;;20.00;18.00;;;;;8.41;100.00;99551.31;6277755;20;2500347;-57
2024/04/22 06:59:36;;;;;;;;;18.00;17.00;;;;;8.49;100.00;99554.44;6279295;20;2821142;-55
2024/04/22 07:02:03;;;;;;;;;21.00;19.00;;;;;8.64;100.00;99551.88;6277154;20;2494104;-57
2024/04/22 07:04:31;;;;;;;;;21.67;21.00;;;;;8.64;100.00;99559.91;6281387;20;3577366;-56
2024/04/22 07:06:57;;;;;;;;;21.00;19.50;;;;;8.83;100.00;99555.25;6274387;20;2500286;-58
2024/04/22 07:09:26;;;;;;;;;22.50;22.50;;;;;8.54;100.00;99563.09;6276021;20;2838929;-58
2024/04/22 07:11:53;;;;;;;;;22.00;21.00;;;;;8.77;100.00;99563.63;6278668;20;2844106;-58
2024/04/22 07:14:22;;;;;;;;;15.33;15.33;;;;;8.74;100.00;99558.41;6279933;20;3545157;-57
2024/04/22 07:16:55;;;;;;;;;25.50;23.00;;;;;8.71;100.00;99571.97;6276744;20;2845162;-55
2024/04/22 07:19:23;;;;;;;;;24.00;24.00;;;;;8.81;100.00;99570.53;6277810;20;2838331;-55
2024/04/22 07:21:49;;;;;;;;;19.00;16.50;;;;;8.97;100.00;99576.72;6277533;20;2500414;-57
2024/04/22 07:24:16;;;;;;;;;22.00;21.00;;;;;9.06;100.00;99569.13;6275857;20;2494029;-56
2024/04/22 07:26:42;;;;;;;;;22.50;22.50;;;;;8.75;100.00;99569.06;6276027;20;2500310;-57
2024/04/22 07:29:10;;;;;;;;;28.00;22.00;;;;;8.73;100.00;99584.31;6277334;20;2848330;-54
2024/04/22 07:31:37;;;;;;;;;14.00;14.00;;;;;8.52;100.00;99574.81;6278737;20;2796145;-58
2024/04/22 07:34:04;;;;;;;;;18.50;16.50;;;;;8.64;100.00;99576.81;6282528;20;2814962;-55
2024/04/22 07:36:36;;;;;;;;;14.67;13.00;;;;;8.57;100.00;99578.97;6275315;20;3531593;-56
2024/04/22 07:39:06;;;;;;;;;14.67;14.00;;;;;8.70;100.00;99579.16;6307874;20;2803440;-57
2024/04/22 07:41:34;;;;;;;;;11.00;11.00;;;;;8.62;100.00;99580.53;6308758;20;2787782;-57
2024/04/22 07:44:01;;;;;;;;;13.00;11.33;;;;;8.71;100.00;99586.22;6280073;20;3527460;-56
2024/04/22 07:46:29;;;;;;;;;9.50;9.50;;;;;8.66;100.00;99592.78;6309503;20;2772153;-58
2024/04/22 07:48:56;;;;;;;;;14.50;12.50;;;;;8.62;100.00;99592.09;6281365;20;2804450;-55
2024/04/22 07:51:23;;;;;;;;;19.00;17.00;;;;;8.48;100.00;99594.69;6279565;20;3567977;-54
2024/04/22 07:53:53;;;;;;;;;17.00;15.00;;;;;8.46;100.00;99592.06;6274256;20;3541991;-56
2024/04/22 07:56:21;;;;;;;;;22.00;22.00;;;;;8.54;100.00;99586.31;6308528;20;2835727;-56
2024/04/22 07:58:50;;;;;;;;;36.00;31.33;;;;;8.41;100.00;99590.59;6279001;20;2858664;-57
2024/04/22 08:01:18;;;;;;;;;24.50;23.50;;;;;8.33;100.00;99593.66;6307166;20;2836777;-59
2024/04/22 08:03:46;;;;;;;;;31.50;28.50;;;;;8.36;100.00;99601.50;6278923;20;2845158;-55
2024/04/22 08:06:19;;;;;;;;;22.50;21.50;;;;;8.58;100.00;99609.25;6278594;20;2840310;-57
2024/04/22 08:08:47;;;;;;;;;21.33;19.33;;;;;8.37;100.00;99611.25;6276948;20;2828435;-55
2024/04/22 08:11:14;;;;;;;;;25.50;22.00;;;;;8.54;100.00;99611.25;6304099;20;2846127;-57
2024/04/22 08:13:42;;;;;;;;;27.50;23.00;;;;;8.84;100.00;99607.81;6278919;20;2839911;-56
2024/04/22 08:16:09;;;;;;;;;24.00;21.00;;;;;8.76;100.00;99624.31;6277175;20;2842011;-57
2024/04/22 08:18:36;;;;;;;;;28.00;25.00;;;;;8.57;100.00;99611.06;6274533;20;2491966;-57
2024/04/22 08:21:05;;;;;;;;;22.00;22.00;;;;;8.91;100.00;99625.28;6273559;20;2854460;-56
2024/04/22 08:23:33;;;;;;;;;29.00;23.00;;;;;8.70;100.00;99615.78;6277612;20;2841938;-54
2024/04/22 08:26:01;;;;;;;;;23.33;17.00;;;;;8.96;100.00;99623.22;6279016;20;3569039;-57
2024/04/22 08:28:28;;;;;;;;;29.50;26.00;;;;;9.19;100.00;99632.63;6307538;20;2846237;-55
2024/04/22 08:31:06;;;;;;;;;22.00;22.00;;;;;9.37;100.00;99635.19;6276596;20;2837809;-57
2024/04/22 08:33:33;;;;;;;;;20.00;16.50;;;;;9.08;100.00;99636.84;6276818;20;2500283;-54
2024/04/22 08:36:01;;;;;;;;;17.67;17.33;;;;;9.11;100.00;99639.34;6279481;20;3564901;-55
2024/04/22 08:38:28;;;;;;;;;18.00;14.33;;;;;9.31;100.00;99646.28;6275426;20;3544028;-58
2024/04/22 08:40:55;;;;;;;;;15.50;15.50;;;;;9.36;100.00;99650.41;6308842;20;2795209;-58
2024/04/22 08:43:23;;;;;;;;;16.33;16.33;;;;;9.55;100.00;99657.41;6277681;20;3548224;-57
2024/04/22 08:45:50;;;;;;;;;21.67;18.00;;;;;10.12;100.00;99654.91;6306613;20;3563840;-58
2024/04/22 08:48:17;;;;;;;;;10.00;10.00;;;;;9.97;100.00;99655.84;6280880;20;2775503;-58
2024/04/22 08:50:50;;;;;;;;;22.00;20.50;;;;;10.08;100.00;99646.22;6273692;20;2500299;-59
2024/04/22 08:53:16;;;;;;;;;20.50;18.00;;;;;10.18;100.00;99657.22;6276117;20;2490368;-58
2024/04/22 08:55:43;;;;;;;;;16.00;14.00;;;;;9.83;100.00;99652.16;6277236;20;2808727;-57
2024/04/22 08:58:10;;;;;;;;;23.33;18.00;;;;;10.17;100.00;99660.03;6277694;20;3569184;-58
2024/04/22 09:00:39;;;;;;;;;16.67;15.00;;;;;10.14;100.00;99661.06;6274740;20;3535790;-54
2024/04/22 09:03:06;;;;;;;;;12.33;12.33;;;;;10.16;100.00;99659.13;6306509;20;2798357;-58
2024/04/22 09:05:33;;;;;;;;;19.00;19.00;;;;;10.14;100.00;99666.44;6307521;20;2491947;-57
2024/04/22 09:08:03;;;;;;;;;16.00;15.00;;;;;10.80;100.00;99664.22;6277257;20;2812768;-57
2024/04/22 09:10:32;;;;;;;;;13.00;12.50;;;;;11.32;99.92;99668.94;6279655;20;2810762;-55
2024/04/22 09:13:01;;;;;;;;;9.80;9.80;;;;;11.12;93.05;99671.09;6301229;20;2771140;-56
2024/04/22 09:15:29;;;;;;;;;13.00;13.00;;;;;10.94;96.70;99667.75;6281646;20;2797176;-59
2024/04/22 09:17:57;;;;;;;;;13.00;12.67;;;;;11.23;90.80;99675.78;6275851;20;2796133;-56
2024/04/22 09:20:33;;;;;;;;;13.00;13.00;;;;;11.28;92.31;99675.50;6308818;20;2798213;-55
2024/04/22 09:23:01;;;;;;;;;13.33;11.67;;;;;11.10;91.10;99673.00;6275618;20;2785750;-56
2024/04/22 09:25:27;;;;;;;;;14.00;14.00;;;;;11.19;91.72;99672.44;6310598;20;2805601;-57
2024/04/22 09:27:54;;;;;;;;;12.00;10.00;;;;;10.86;91.59;99675.44;6275306;20;2794454;-57
2024/04/22 09:30:21;;;;;;;;;9.00;9.00;;;;;11.17;87.92;99681.56;6277804;20;2733684;-56
2024/04/22 09:32:48;;;;;;;;;11.50;11.50;;;;;11.03;90.37;99677.03;6275018;20;2788982;-56
2024/04/22 09:35:20;;;;;;;;;10.00;10.00;;;;;11.94;88.24;99666.63;6281688;20;2790980;-55
2024/04/22 09:37:50;;;;;;;;;10.00;10.00;;;;;12.44;83.10;99683.84;6275275;20;2789969;-55
2024/04/22 09:40:19;;;;;;;;;9.20;8.60;;;;;13.39;79.56;99682.47;6333122;20;2752397;-58
2024/04/22 09:42:47;;;;;;;;;10.00;10.00;;;;;12.70;80.81;99681.16;6310711;20;2798301;-58
2024/04/22 09:45:15;;;;;;;;;11.50;11.00;;;;;13.22;75.66;99679.25;6278718;20;2791956;-57
2024/04/22 09:47:42;;;;;;;;;13.00;10.00;;;;;12.82;79.15;99665.97;6280757;20;2792057;-57
2024/04/22 09:50:10;;;;;;;;;11.00;11.00;;;;;11.49;84.42;99667.84;6280248;20;2794033;-57
2024/04/22 09:52:38;;;;;;;;;10.00;10.00;;;;;11.81;89.75;99665.72;6279432;20;2798200;-56
2024/04/22 09:55:07;;;;;;;;;11.50;11.00;;;;;12.29;84.55;99669.59;6278142;20;2790035;-59
2024/04/22 09:57:41;;;;;;;;;12.00;12.00;;;;;11.97;87.30;99663.75;6279971;20;2791291;-58
2024/04/22 10:00:12;;;;;;;;;13.67;11.33;;;;;12.03;83.24;99668.72;6279572;20;2793095;-58
2024/04/22 10:02:39;;;;;;;;;10.00;10.00;;;;;12.39;82.45;99668.97;6317703;20;2784666;-58
2024/04/22 10:05:11;;;;;;;;;8.50;8.50;;;;;12.52;76.70;99669.84;6284836;20;2752487;-57
2024/04/22 10:07:42;;;;;;;;;10.00;9.00;;;;;12.93;81.35;99675.00;6309124;20;2770376;-57
2024/04/22 10:10:13;;;;;;;;;8.29;8.29;;;;;12.54;83.73;99673.31;6325987;20;1797206;-59
2024/04/22 10:12:40;;;;;;;;;12.67;12.67;;;;;12.22;82.59;99672.84;6311215;20;3534690;-56
2024/04/22 10:15:15;;;;;;;;;12.20;11.60;;;;;11.81;82.71;99668.41;6357203;20;1929510;-59
2024/04/22 10:17:44;;;;;;;;;11.67;11.67;;;;;11.52;88.82;99667.66;6309905;20;3515928;-58
2024/04/22 10:20:11;;;;;;;;;17.50;16.50;;;;;11.73;82.73;99674.28;6314315;20;2821151;-56
2024/04/22 10:22:39;;;;;;;;;11.50;11.50;;;;;11.50;82.32;99670.41;6282442;20;2786842;-57
2024/04/22 10:25:08;;;;;;;;;14.00;11.00;;;;;11.29;83.66;99679.91;6283116;20;2796140;-56
2024/04/22 10:27:36;;;;;;;;;12.67;10.67;;;;;11.29;85.59;99677.19;6280907;20;2784478;-58
2024/04/22 10:30:06;;;;;;;;;22.50;20.50;;;;;10.85;93.97;99675.53;6313667;20;2489951;-56
2024/04/22 10:32:32;;;;;;;;;11.00;11.00;;;;;11.03;88.45;99677.03;6314724;20;2789919;-55
2024/04/22 10:34:59;;;;;;;;;12.50;12.50;;;;;11.12;87.09;99681.84;6281543;20;2789866;-56
2024/04/22 10:37:26;;;;;;;;;11.67;11.67;;;;;11.14;86.41;99682.63;6278634;20;2782582;-58
2024/04/22 10:39:53;;;;;;;;;12.00;12.00;;;;;11.14;86.17;99685.31;6309069;20;2792074;-57
2024/04/22 10:42:20;;;;;;;;;18.33;17.33;;;;;11.12;87.31;99684.53;6281831;20;2833634;-54
2024/04/22 10:44:48;;;;;;;;;15.33;13.33;;;;;11.19;88.68;99680.50;6311580;20;3532554;-57
2024/04/22 10:47:15;;;;;;;;;15.00;14.00;;;;;11.13;92.67;99686.25;6282368;20;2802370;-57
2024/04/22 10:49:42;;;;;;;;;14.00;14.00;;;;;11.51;88.58;99684.75;6284374;20;2779520;-56
2024/04/22 10:52:09;;;;;;;;;15.00;15.00;;;;;11.38;89.32;99679.31;6282404;20;2796134;-56
2024/04/22 10:54:37;;;;;;;;;13.33;13.33;;;;;11.62;85.98;99683.06;6280490;20;3526435;-58
2024/04/22 10:57:04;;;;;;;;;19.50;19.50;;;;;10.89;86.74;99679.75;6310786;20;2835723;-55
2024/04/22 10:59:31;;;;;;;;;18.00;17.00;;;;;11.73;85.24;99684.19;6276617;20;2496153;-58
2024/04/22 11:01:58;;;;;;;;;18.33;16.67;;;;;11.60;84.78;99681.44;6277819;20;3559627;-59
2024/04/22 11:04:25;;;;;;;;;17.00;17.00;;;;;11.84;80.72;99684.34;6279027;20;2494028;-57
2024/04/22 11:06:53;;;;;;;;;16.00;16.00;;;;;12.17;82.20;99686.63;6279931;20;2821127;-58
2024/04/22 11:09:21;;;;;;;;;18.50;17.50;;;;;12.54;79.84;99694.00;6279158;20;2830544;-58